Time;durP1;ratioP1;P1;durP2;ratioP2;P2;SDS_P1;SDS_P2;PMS_P1;PMS_P2;Temp;Humidity;BMP_temperature;BMP_pressure;BME280_temperature;BME280_humidity;BME280_pressure;Samples;Min_cycle;Max_cycle;Signal;HPM_P1;HPM_P2
2024/02/12 00:00:18;;;;;;;24.70;15.30;;;;;;;6.75;63.38;99427.44;105567;1253;64911;-62
2024/02/12 00:02:47;;;;;;;13.70;5.20;;;;;;;6.78;63.35;99424.22;106111;1254;61467;-63
2024/02/12 00:05:15;;;;;;;11.50;5.00;;;;;;;6.80;63.44;99420.72;108978;1253;63815;-65
2024/02/12 00:07:43;;;;;;;20.60;15.20;;;;;;;6.80;63.41;99415.19;108817;1253;60155;-64
2024/02/12 00:10:14;;;;;;;14.50;7.30;;;;;;;6.76;63.56;99417.18;105514;1257;60358;-70
2024/02/12 00:12:42;;;;;;;12.70;6.70;;;;;;;6.75;63.80;99417.83;104388;1254;64869;-66
2024/02/12 00:15:13;;;;;;;14.50;5.60;;;;;;;6.71;63.97;99419.19;104421;1254;60639;-66
2024/02/12 00:17:41;;;;;;;10.20;4.90;;;;;;;6.68;64.08;99426.54;104463;1253;64581;-64
2024/02/12 00:20:11;;;;;;;11.20;6.50;;;;;;;6.62;64.04;99431.20;106540;1254;60535;-64
2024/02/12 00:22:40;;;;;;;12.60;5.90;;;;;;;6.53;63.94;99431.05;108944;1252;59032;-65
2024/02/12 00:25:11;;;;;;;25.50;15.40;;;;;;;6.46;64.01;99427.94;108872;1253;65074;-65
2024/02/12 00:27:39;;;;;;;13.00;5.90;;;;;;;6.42;63.94;99429.86;104757;1257;61542;-61
2024/02/12 00:30:10;;;;;;;11.50;5.60;;;;;;;6.42;63.87;99427.88;104456;1253;63741;-64
2024/02/12 00:32:37;;;;;;;11.00;4.90;;;;;;;6.48;64.03;99425.49;108814;1254;58921;-63
2024/02/12 00:35:05;;;;;;;9.80;4.30;;;;;;;6.55;63.90;99418.86;108872;1253;59130;-65
2024/02/12 00:37:36;;;;;;;12.90;5.30;;;;;;;6.62;63.90;99415.02;105011;1256;64935;-64
2024/02/12 00:40:08;;;;;;;24.10;14.90;;;;;;;6.68;64.03;99413.14;104433;1252;62021;-62
2024/02/12 00:42:38;;;;;;;9.90;4.10;;;;;;;6.75;64.02;99410.89;108898;1253;64719;-65
2024/02/12 00:45:10;;;;;;;11.80;5.70;;;;;;;6.80;64.20;99407.33;108895;1253;58368;-65
2024/02/12 00:47:39;;;;;;;13.30;6.30;;;;;;;6.83;64.31;99405.30;108902;1253;58205;-64
2024/02/12 00:50:08;;;;;;;13.20;6.10;;;;;;;6.84;64.31;99400.36;108930;1252;63839;-66
2024/02/12 00:52:37;;;;;;;11.40;6.20;;;;;;;6.82;64.25;99393.95;108876;1253;61379;-62
2024/02/12 00:55:06;;;;;;;20.30;14.30;;;;;;;6.77;64.21;99393.96;104727;1252;63779;-61
2024/02/12 00:57:34;;;;;;;10.70;5.60;;;;;;;6.75;64.21;99393.11;107797;1254;60510;-60
2024/02/12 01:00:03;;;;;;;12.40;5.40;;;;;;;6.77;64.11;99394.80;104426;1252;61473;-61
2024/02/12 01:02:33;;;;;;;11.20;5.20;;;;;;;6.80;64.05;99394.55;106679;1257;65094;-65
2024/02/12 01:05:01;;;;;;;22.60;13.30;;;;;;;6.82;63.84;99394.61;106005;1254;60074;-62
2024/02/12 01:07:29;;;;;;;10.40;3.80;;;;;;;6.81;63.67;99388.63;104359;1257;64383;-62
2024/02/12 01:09:57;;;;;;;21.30;14.10;;;;;;;6.78;63.65;99388.66;108856;1253;60654;-66
2024/02/12 01:12:25;;;;;;;11.50;4.60;;;;;;;6.74;63.68;99386.89;108904;1252;60915;-69
2024/02/12 01:14:53;;;;;;;15.90;8.50;;;;;;;6.72;63.79;99387.42;107980;1253;65060;-65
2024/02/12 01:17:22;;;;;;;13.60;5.40;;;;;;;6.74;63.96;99384.96;104403;1256;71116;-64
2024/02/12 01:19:53;;;;;;;10.80;5.60;;;;;;;6.73;63.89;99372.67;104558;1257;62527;-72
2024/02/12 01:22:21;;;;;;;12.30;6.00;;;;;;;6.69;63.80;99367.60;104383;1255;60468;-68
2024/02/12 01:24:49;;;;;;;13.80;6.40;;;;;;;6.63;63.81;99367.70;104236;1254;60737;-73
2024/02/12 01:27:17;;;;;;;13.60;6.70;;;;;;;6.55;63.73;99368.84;104233;1254;63656;-72
2024/02/12 01:29:47;;;;;;;21.90;13.40;;;;;;;6.52;63.47;99367.86;108802;1254;60168;-68
2024/02/12 01:32:15;;;;;;;11.10;5.20;;;;;;;6.53;63.33;99368.54;108893;1253;63747;-71
2024/02/12 01:34:44;;;;;;;10.00;4.20;;;;;;;6.58;63.44;99374.78;108836;1252;59207;-74
2024/02/12 01:37:11;;;;;;;8.70;4.00;;;;;;;6.67;63.55;99382.34;108909;1253;60005;-69
2024/02/12 01:39:39;;;;;;;21.70;12.90;;;;;;;6.76;63.25;99383.60;104543;1256;64976;-69
2024/02/12 01:42:14;;;;;;;12.40;4.60;;;;;;;6.90;63.08;99383.85;104519;1252;60409;-66
2024/02/12 01:45:11;;;;;;;11.80;6.00;;;;;;;6.97;63.08;99379.30;104354;1253;63774;-68
2024/02/12 01:47:43;;;;;;;20.70;14.30;;;;;;;6.96;63.03;99378.64;104474;1257;60559;-68
2024/02/12 01:50:12;;;;;;;12.00;6.00;;;;;;;6.94;62.99;99384.23;104298;1252;61553;-70
2024/02/12 01:52:41;;;;;;;12.00;7.20;;;;;;;6.92;63.15;99393.45;108427;1252;67040;-67
2024/02/12 01:55:08;;;;;;;23.80;14.70;;;;;;;6.85;63.11;99391.75;104532;1254;61425;-72
2024/02/12 01:57:36;;;;;;;11.80;5.50;;;;;;;6.71;63.29;99385.73;104726;1254;63894;-67
2024/02/12 02:00:05;;;;;;;11.40;4.60;;;;;;;6.68;63.24;99383.20;105559;1252;60341;-64
2024/02/12 02:02:43;;;;;;;12.00;5.40;;;;;;;6.70;63.24;99381.13;108894;1253;58256;-68
2024/02/12 02:05:12;;;;;;;22.90;14.00;;;;;;;6.73;63.16;99376.34;108867;1254;63765;-74
2024/02/12 02:07:39;;;;;;;10.80;5.50;;;;;;;6.82;63.36;99374.94;106546;1253;61540;-66
2024/02/12 02:10:09;;;;;;;13.60;6.10;;;;;;;6.87;63.51;99365.05;104476;1254;64704;-68
2024/02/12 02:12:37;;;;;;;13.00;5.90;;;;;;;6.87;63.42;99358.43;104285;1253;65222;-68
2024/02/12 02:15:05;;;;;;;24.40;14.10;;;;;;;6.84;63.42;99349.77;106487;1257;58891;-67
2024/02/12 02:17:33;;;;;;;15.50;7.30;;;;;;;6.83;63.57;99349.17;108287;1253;64943;-68
2024/02/12 02:20:01;;;;;;;11.50;6.80;;;;;;;6.82;63.64;99345.66;106576;1257;60421;-66
2024/02/12 02:22:29;;;;;;;24.70;14.50;;;;;;;6.78;63.65;99352.52;108814;1254;66468;-70
2024/02/12 02:24:58;;;;;;;10.80;4.70;;;;;;;6.76;63.66;99360.56;106073;1251;60475;-66
2024/02/12 02:27:26;;;;;;;12.30;4.40;;;;;;;6.78;63.57;99369.48;107104;1252;60456;-68
2024/02/12 02:29:53;;;;;;;9.90;4.30;;;;;;;6.80;63.23;99371.59;108031;1254;63727;-67
2024/02/12 02:32:21;;;;;;;22.10;12.80;;;;;;;6.84;63.29;99367.23;104347;1258;60456;-65
2024/02/12 02:34:49;;;;;;;8.60;3.10;;;;;;;6.90;63.41;99366.23;106619;1253;538332;-68
2024/02/12 02:39:36;;;;;;;13.70;5.80;;;;;;;6.61;64.62;99365.61;101296;1292;601454;-67
2024/02/12 02:42:05;;;;;;;11.30;5.80;;;;;;;6.96;63.60;99369.58;103342;1271;59455;-66
2024/02/12 02:44:35;;;;;;;10.60;5.50;;;;;;;6.98;63.48;99371.86;107906;1267;59071;-69
2024/02/12 02:47:04;;;;;;;12.80;5.50;;;;;;;6.95;63.34;99374.58;107884;1267;63793;-65
2024/02/12 02:49:32;;;;;;;11.10;5.90;;;;;;;6.89;63.36;99374.71;104025;1264;60151;-67
2024/02/12 02:52:00;;;;;;;24.40;14.60;;;;;;;6.81;63.34;99369.42;105142;1265;62536;-66
2024/02/12 02:54:27;;;;;;;9.30;4.40;;;;;;;6.75;63.40;99371.27;103497;1261;250790;-72
2024/02/12 02:56:57;;;;;;;9.20;3.80;;;;;;;6.77;63.38;99375.30;103684;1267;59032;-75
2024/02/12 02:59:25;;;;;;;21.20;13.10;;;;;;;6.81;63.32;99374.33;105616;1262;62034;-72
2024/02/12 03:01:53;;;;;;;9.00;3.70;;;;;;;6.81;63.25;99377.91;103663;1262;60117;-73
2024/02/12 03:04:20;;;;;;;10.30;3.30;;;;;;;6.85;63.49;99380.75;104598;1262;62462;-68
2024/02/12 03:06:48;;;;;;;10.10;5.40;;;;;;;6.90;63.72;99377.39;103745;1267;59733;-72
2024/02/12 03:09:15;;;;;;;10.90;4.70;;;;;;;6.92;63.88;99367.02;103661;1262;60110;-70
2024/02/12 03:11:45;;;;;;;11.10;5.30;;;;;;;6.85;63.91;99364.02;103632;1261;63146;-66
2024/02/12 03:14:12;;;;;;;22.20;15.10;;;;;;;6.76;64.17;99363.89;103654;1264;60156;-64
2024/02/12 03:16:41;;;;;;;11.70;5.40;;;;;;;6.69;64.41;99362.70;103618;1263;62673;-64
2024/02/12 03:19:08;;;;;;;16.80;7.70;;;;;;;6.67;64.34;99360.55;108199;1261;60941;-64
2024/02/12 03:21:37;;;;;;;15.70;6.20;;;;;;;6.69;64.43;99354.17;108199;1262;59170;-59
2024/02/12 03:24:05;;;;;;;10.10;4.50;;;;;;;6.73;64.52;99356.60;108157;1262;62852;-69
2024/02/12 03:26:32;;;;;;;10.80;4.50;;;;;;;6.76;64.46;99352.56;108127;1262;60150;-69
2024/02/12 03:29:00;;;;;;;12.10;5.70;;;;;;;6.75;64.40;99353.30;106104;1262;63883;-69
2024/02/12 03:31:28;;;;;;;12.30;5.40;;;;;;;6.73;64.61;99364.79;103730;1263;60638;-56
2024/02/12 03:33:56;;;;;;;12.50;6.10;;;;;;;6.70;64.74;99369.20;108153;1261;58746;-72
2024/02/12 03:36:23;;;;;;;12.00;5.70;;;;;;;6.68;64.80;99373.42;108100;1262;64141;-74
2024/02/12 03:38:52;;;;;;;23.40;15.00;;;;;;;6.62;64.79;99373.20;103732;1262;61971;-69
2024/02/12 03:41:23;;;;;;;10.30;4.30;;;;;;;6.58;64.82;99373.35;103738;1262;63771;-68
2024/02/12 03:43:57;;;;;;;12.40;5.30;;;;;;;6.59;64.69;99371.33;103680;1262;59737;-73
2024/02/12 03:46:31;;;;;;;7.90;3.30;;;;;;;6.69;64.40;99366.04;108163;1262;59108;-72
2024/02/12 04:00:16;;;;;;;;;;;;;;;6.84;64.60;99353.12;103726;1262;61100;-69
2024/02/12 04:02:45;;;;;;;9.10;4.10;;;;;;;6.77;64.63;99347.42;103620;1261;62835;-68
2024/02/12 04:05:13;;;;;;;9.40;5.50;;;;;;;6.69;64.67;99345.83;105827;1267;71850;-69
2024/02/12 04:07:41;;;;;;;12.80;6.00;;;;;;;6.59;64.80;99343.64;103803;1263;63865;-66
2024/02/12 04:10:10;;;;;;;9.70;4.50;;;;;;;6.50;65.02;99339.46;108127;1262;58239;-69
2024/02/12 04:12:43;;;;;;;8.90;3.70;;;;;;;6.45;65.16;99338.10;106635;1267;59630;-67
2024/02/12 04:15:13;;;;;;;11.30;4.60;;;;;;;6.50;64.94;99344.99;103706;1262;62887;-69
2024/02/12 04:17:42;;;;;;;11.40;5.00;;;;;;;6.64;64.44;99353.70;108165;1262;60195;-70
2024/02/12 04:20:11;;;;;;;19.90;13.10;;;;;;;6.70;64.13;99359.10;108151;1262;64691;-66
2024/02/12 04:22:39;;;;;;;11.30;4.40;;;;;;;6.77;64.11;99363.65;108214;1262;57546;-65
2024/02/12 04:25:10;;;;;;;9.70;3.80;;;;;;;6.84;64.15;99359.59;106779;1265;59479;-72
2024/02/12 04:27:41;;;;;;;19.50;12.50;;;;;;;6.92;64.20;99353.17;108219;1261;62927;-67
2024/02/12 04:30:10;;;;;;;10.70;4.80;;;;;;;6.99;64.23;99345.15;103871;1268;61497;-68
2024/02/12 04:32:38;;;;;;;12.10;5.70;;;;;;;7.03;64.19;99340.65;103645;1265;64308;-75
2024/02/12 04:35:06;;;;;;;18.60;13.20;;;;;;;7.06;64.15;99342.45;103613;1262;60443;-73
2024/02/12 04:37:34;;;;;;;11.50;5.40;;;;;;;6.88;64.51;99350.37;108155;1262;57535;-69
2024/02/12 04:40:02;;;;;;;11.10;4.90;;;;;;;6.74;64.86;99357.73;108169;1262;64157;-75
2024/02/12 04:42:30;;;;;;;10.60;4.40;;;;;;;6.65;64.63;99358.32;104432;1265;69567;-66
2024/02/12 04:44:58;;;;;;;10.50;4.80;;;;;;;6.60;64.64;99360.80;108147;1262;63791;-56
2024/02/12 04:47:27;;;;;;;10.20;4.90;;;;;;;6.56;64.56;99357.33;107950;1261;59394;-56
2024/02/12 04:49:54;;;;;;;10.90;4.40;;;;;;;6.49;64.63;99354.73;103720;1265;61207;-54
2024/02/12 04:52:22;;;;;;;10.80;4.80;;;;;;;6.47;64.63;99348.91;103728;1265;63222;-56
2024/02/12 04:54:50;;;;;;;8.90;3.50;;;;;;;6.53;64.63;99346.72;108186;1262;62291;-58
2024/02/12 04:57:17;;;;;;;10.40;5.20;;;;;;;6.58;64.58;99346.20;106411;1267;62625;-57
2024/02/12 04:59:45;;;;;;;10.80;4.60;;;;;;;6.65;64.55;99348.90;103891;1262;62880;-68
2024/02/12 05:02:14;;;;;;;25.30;12.80;;;;;;;6.73;64.78;99352.48;103676;1262;60660;-69
2024/02/12 05:04:42;;;;;;;10.40;4.90;;;;;;;6.79;64.87;99346.90;103807;1265;64196;-66
2024/02/12 05:07:11;;;;;;;17.50;12.30;;;;;;;6.84;64.93;99348.45;103825;1266;61844;-64
2024/02/12 05:09:40;;;;;;;10.80;5.10;;;;;;;6.83;65.04;99354.95;104022;1263;66974;-67
2024/02/12 05:12:15;;;;;;;10.70;5.30;;;;;;;6.79;64.93;99363.46;104014;1262;59769;-64
2024/02/12 05:14:49;;;;;;;13.50;5.40;;;;;;;6.70;64.73;99370.43;108148;1262;59387;-64
2024/02/12 05:17:23;;;;;;;13.70;5.70;;;;;;;6.63;64.70;99379.56;108213;1262;62866;-66
2024/02/12 05:22:38;;;;;;;12.00;4.70;;;;;;;6.52;64.57;99380.45;103600;1262;63759;-71
2024/02/12 05:25:07;;;;;;;10.00;4.80;;;;;;;6.48;64.61;99381.40;104141;1262;60438;-69
2024/02/12 05:27:36;;;;;;;18.60;12.90;;;;;;;6.53;64.54;99389.95;108179;1261;59190;-71
2024/02/12 05:30:06;;;;;;;9.00;3.50;;;;;;;6.59;64.53;99397.45;108129;1262;65067;-57
2024/02/12 05:32:36;;;;;;;9.20;4.10;;;;;;;6.65;64.35;99395.74;108100;1262;64115;-59
2024/02/12 05:35:05;;;;;;;9.70;4.80;;;;;;;6.70;64.40;99394.48;108096;1264;63836;-59
2024/02/12 05:37:34;;;;;;;20.50;12.50;;;;;;;6.77;64.26;99396.23;108149;1262;59237;-58
2024/02/12 05:40:03;;;;;;;8.60;4.30;;;;;;;6.85;64.30;99392.77;108151;1267;57703;-58
2024/02/12 05:42:32;;;;;;;13.00;6.40;;;;;;;6.91;64.23;99398.11;108068;1261;74308;-67
2024/02/12 05:45:00;;;;;;;18.10;13.10;;;;;;;6.93;64.33;99397.75;105307;1265;60185;-62
2024/02/12 05:47:28;;;;;;;13.10;5.90;;;;;;;6.94;64.29;99395.71;103715;1262;63796;-58
2024/02/12 05:49:56;;;;;;;22.20;14.10;;;;;;;6.94;64.23;99397.14;103547;1264;60036;-58
2024/02/12 05:52:24;;;;;;;13.90;6.10;;;;;;;6.94;64.30;99397.85;108189;1265;58364;-63
2024/02/12 05:54:52;;;;;;;11.80;3.70;;;;;;;6.96;64.03;99399.40;108139;1261;64099;-63
2024/02/12 05:57:19;;;;;;;9.40;4.00;;;;;;;7.00;63.86;99395.09;108277;1262;72405;-60
2024/02/12 05:59:47;;;;;;;18.70;12.50;;;;;;;7.05;63.73;99394.55;105456;1262;63052;-56
2024/02/12 06:02:15;;;;;;;9.50;3.80;;;;;;;7.08;63.63;99387.77;103782;1262;59762;-57
2024/02/12 06:04:42;;;;;;;18.50;12.30;;;;;;;7.10;63.70;99384.84;103846;1262;59627;-59
2024/02/12 06:07:10;;;;;;;11.20;5.50;;;;;;;7.12;64.00;99381.89;103763;1265;64100;-59
2024/02/12 06:09:39;;;;;;;16.80;12.60;;;;;;;7.16;64.10;99388.77;103685;1268;60294;-60
2024/02/12 06:12:07;;;;;;;12.30;4.90;;;;;;;7.16;64.00;99385.40;103486;1262;64064;-60
2024/02/12 06:14:35;;;;;;;16.10;11.60;;;;;;;7.17;64.05;99389.34;108050;1261;59255;-59
2024/02/12 06:17:03;;;;;;;8.40;4.00;;;;;;;7.19;64.09;99386.75;108081;1263;59148;-59
2024/02/12 06:19:31;;;;;;;10.50;4.10;;;;;;;7.20;63.72;99383.16;108136;1266;64992;-56
2024/02/12 06:21:58;;;;;;;11.40;6.20;;;;;;;7.24;63.78;99376.73;106185;1265;60323;-57
2024/02/12 06:24:26;;;;;;;18.90;12.10;;;;;;;7.30;63.57;99370.17;103682;1265;66528;-56
2024/02/12 06:26:55;;;;;;;9.80;4.20;;;;;;;7.31;63.51;99370.77;103649;1263;60044;-59
2024/02/12 06:29:23;;;;;;;17.40;12.80;;;;;;;7.29;63.52;99373.05;106090;1263;62367;-59
2024/02/12 06:31:50;;;;;;;12.20;4.90;;;;;;;7.23;63.60;99368.95;103716;1262;62944;-57
2024/02/12 06:34:18;;;;;;;9.10;4.60;;;;;;;7.22;63.87;99374.30;103792;1262;70701;-57
2024/02/12 06:36:46;;;;;;;17.50;12.70;;;;;;;7.19;63.80;99375.41;108357;1259;63821;-58
2024/02/12 06:39:14;;;;;;;10.40;4.90;;;;;;;7.15;63.74;99374.01;104043;1262;60081;-55
2024/02/12 06:41:42;;;;;;;8.70;3.50;;;;;;;7.14;63.50;99380.19;104072;1259;59763;-57
2024/02/12 06:44:12;;;;;;;10.50;4.70;;;;;;;7.16;63.42;99387.52;108375;1257;64133;-58
2024/02/12 06:46:43;;;;;;;10.90;5.00;;;;;;;7.20;63.33;99389.14;106950;1257;61995;-58
2024/02/12 06:49:12;;;;;;;8.30;4.10;;;;;;;7.24;63.47;99384.56;107964;1259;63773;-57
2024/02/12 06:51:41;;;;;;;9.20;4.00;;;;;;;7.32;63.45;99385.16;108349;1259;58953;-58
2024/02/12 06:54:08;;;;;;;15.40;11.90;;;;;;;7.37;63.67;99388.39;108395;1258;59647;-57
2024/02/12 06:56:43;;;;;;;8.50;4.70;;;;;;;7.41;63.67;99390.52;104441;1258;68047;-58
2024/02/12 06:59:10;;;;;;;18.10;12.50;;;;;;;7.43;63.80;99388.28;105468;1258;61910;-56
2024/02/12 07:01:38;;;;;;;9.50;4.50;;;;;;;7.43;63.81;99387.56;104064;1259;64651;-58
2024/02/12 07:04:06;;;;;;;16.30;11.70;;;;;;;7.38;63.70;99391.06;104370;1254;61767;-58
2024/02/12 07:06:34;;;;;;;8.20;3.50;;;;;;;7.31;63.59;99388.52;104339;1253;60425;-58
2024/02/12 07:09:02;;;;;;;15.60;10.60;;;;;;;7.29;63.58;99384.86;108627;1258;65285;-59
2024/02/12 07:11:30;;;;;;;9.90;4.70;;;;;;;7.33;63.49;99387.02;108627;1256;60389;-60
2024/02/12 07:13:57;;;;;;;9.10;4.00;;;;;;;7.38;63.43;99391.14;106923;1255;63728;-58
2024/02/12 07:16:30;;;;;;;8.60;3.90;;;;;;;7.45;63.70;99395.58;104978;1256;60558;-67
2024/02/12 07:19:04;;;;;;;15.00;11.80;;;;;;;7.58;63.91;99391.23;104789;1260;60675;-59
2024/02/12 07:21:34;;;;;;;10.60;5.30;;;;;;;7.69;63.90;99384.73;108709;1255;65395;-60
2024/02/12 07:24:04;;;;;;;15.30;10.40;;;;;;;7.71;63.85;99385.77;105323;1258;63858;-56
2024/02/12 07:26:32;;;;;;;9.50;4.90;;;;;;;7.71;63.79;99387.85;104282;1258;62451;-60
2024/02/12 07:29:00;;;;;;;16.50;12.10;;;;;;;7.69;63.65;99385.95;104111;1255;61774;-55
2024/02/12 07:31:27;;;;;;;9.30;4.30;;;;;;;7.67;63.54;99385.79;104169;1253;61361;-53
2024/02/12 07:33:55;;;;;;;21.10;11.20;;;;;;;7.69;63.44;99384.04;105013;1259;64854;-59
2024/02/12 07:36:24;;;;;;;9.60;4.80;;;;;;;7.78;63.63;99385.75;104326;1253;62508;-58
2024/02/12 07:38:53;;;;;;;14.70;9.70;;;;;;;7.87;63.57;99382.69;105222;1253;62543;-57
2024/02/12 07:41:20;;;;;;;9.30;4.80;;;;;;;7.94;63.66;99381.86;104338;1256;61381;-56
2024/02/12 07:43:48;;;;;;;18.60;10.90;;;;;;;8.01;63.67;99384.44;104364;1258;60441;-56
2024/02/12 07:46:16;;;;;;;10.30;4.90;;;;;;;8.04;63.49;99386.49;104332;1258;64898;-56
2024/02/12 07:48:45;;;;;;;9.20;4.50;;;;;;;8.04;63.43;99384.69;104334;1253;61940;-65
2024/02/12 07:51:15;;;;;;;15.40;10.90;;;;;;;8.00;63.21;99381.05;104300;1254;77222;-62
2024/02/12 07:53:44;;;;;;;10.70;4.80;;;;;;;7.95;62.90;99381.50;108609;1253;65248;-68
2024/02/12 07:56:12;;;;;;;10.70;3.90;;;;;;;7.95;62.78;99380.80;107102;1257;60225;-70
2024/02/12 07:58:40;;;;;;;12.30;5.50;;;;;;;7.98;62.62;99382.80;106280;1253;65848;-67
2024/02/12 08:01:07;;;;;;;8.20;3.90;;;;;;;8.02;62.54;99384.00;104265;1259;62569;-65
2024/02/12 08:03:35;;;;;;;19.10;11.70;;;;;;;8.08;62.64;99380.55;104165;1258;62681;-66
2024/02/12 08:06:03;;;;;;;8.80;4.70;;;;;;;8.11;62.71;99383.59;104207;1253;60477;-72
2024/02/12 08:08:32;;;;;;;17.70;12.40;;;;;;;8.15;62.89;99379.58;108644;1253;60352;-68
2024/02/12 08:11:00;;;;;;;9.70;4.50;;;;;;;8.20;62.74;99382.69;108629;1253;63693;-67
2024/02/12 08:13:28;;;;;;;20.90;12.30;;;;;;;8.18;62.44;99375.52;108665;1253;72922;-63
2024/02/12 08:15:56;;;;;;;11.90;6.10;;;;;;;8.16;62.45;99378.85;108613;1253;68599;-64
2024/02/12 08:18:24;;;;;;;9.70;4.70;;;;;;;8.15;62.46;99381.88;108120;1257;61459;-65
2024/02/12 08:20:53;;;;;;;18.70;12.30;;;;;;;8.13;62.45;99389.90;105012;1256;62055;-67
2024/02/12 08:23:21;;;;;;;10.30;5.00;;;;;;;8.11;62.46;99390.58;104144;1253;75133;-67
2024/02/12 08:25:48;;;;;;;8.70;4.50;;;;;;;8.16;62.35;99393.66;108619;1258;66129;-68
2024/02/12 08:28:16;;;;;;;16.00;12.00;;;;;;;8.23;62.22;99396.19;105319;1257;64822;-65
2024/02/12 08:30:44;;;;;;;10.60;4.40;;;;;;;8.32;62.37;99394.58;104272;1255;60455;-66
2024/02/12 08:33:12;;;;;;;16.80;11.30;;;;;;;8.41;62.22;99397.34;104389;1258;60371;-71
2024/02/12 08:35:40;;;;;;;10.70;5.60;;;;;;;8.46;62.22;99397.36;105454;1258;76077;-67
2024/02/12 08:38:09;;;;;;;18.30;12.80;;;;;;;8.53;62.54;99402.02;108646;1253;61498;-71
2024/02/12 08:40:37;;;;;;;12.80;5.50;;;;;;;8.60;62.50;99404.10;105713;1258;62619;-69
2024/02/12 08:43:06;;;;;;;12.20;6.80;;;;;;;8.63;62.42;99406.63;104458;1254;61045;-73
2024/02/12 08:45:33;;;;;;;19.50;13.60;;;;;;;8.62;62.35;99408.41;104751;1253;60480;-75
2024/02/12 08:48:01;;;;;;;25.90;12.40;;;;;;;8.64;62.44;99404.58;104221;1258;75937;-75
2024/02/12 08:50:29;;;;;;;9.00;4.10;;;;;;;8.69;62.27;99400.81;104222;1253;62905;-69
2024/02/12 08:52:57;;;;;;;11.10;5.20;;;;;;;8.75;62.00;99398.17;104207;1254;75441;-69
2024/02/12 08:55:26;;;;;;;17.00;11.10;;;;;;;8.78;62.04;99395.17;105684;1254;63940;-75
2024/02/12 08:57:54;;;;;;;17.30;12.40;;;;;;;8.84;62.13;99394.64;106788;1253;60701;-71
2024/02/12 09:00:22;;;;;;;11.00;6.40;;;;;;;8.92;62.27;99393.59;104315;1256;66913;-71
2024/02/12 09:02:50;;;;;;;19.80;13.90;;;;;;;8.98;62.34;99389.02;106095;1253;61843;-71
2024/02/12 09:05:18;;;;;;;20.20;14.10;;;;;;;9.05;62.56;99394.70;107920;1254;74615;-70
2024/02/12 09:07:46;;;;;;;10.80;6.60;;;;;;;9.09;62.44;99393.98;108761;1258;60135;-71
2024/02/12 09:10:14;;;;;;;19.50;13.00;;;;;;;9.08;62.22;99394.94;106342;1253;61413;-74
2024/02/12 09:12:43;;;;;;;11.40;6.20;;;;;;;9.08;62.34;99395.81;108053;1255;63712;-66
2024/02/12 09:15:21;;;;;;;21.20;13.40;;;;;;;9.11;62.13;99398.86;104266;1253;71005;-58
2024/02/12 09:17:50;;;;;;;10.30;5.20;;;;;;;9.17;62.27;99401.80;106115;1258;63687;-67
2024/02/12 09:20:19;;;;;;;18.00;12.60;;;;;;;9.25;62.57;99401.77;107873;1253;63971;-65
2024/02/12 09:22:48;;;;;;;13.10;5.30;;;;;;;9.35;62.66;99404.06;108578;1259;58872;-67
2024/02/12 09:25:15;;;;;;;19.10;11.90;;;;;;;9.45;62.85;99406.13;108677;1253;68053;-66
2024/02/12 09:27:45;;;;;;;19.40;12.10;;;;;;;9.51;62.86;99409.26;108727;1258;72218;-67
2024/02/12 09:30:16;;;;;;;17.40;11.80;;;;;;;9.53;62.84;99412.11;108622;1254;64960;-66
2024/02/12 09:32:44;;;;;;;9.70;4.90;;;;;;;9.54;62.72;99407.77;108682;1260;59430;-64
2024/02/12 09:35:12;;;;;;;16.10;10.30;;;;;;;9.61;62.74;99403.77;108807;1253;58725;-67
2024/02/12 09:37:40;;;;;;;16.90;10.90;;;;;;;9.71;62.71;99405.02;108761;1253;63992;-66
2024/02/12 09:40:08;;;;;;;17.00;12.00;;;;;;;9.80;62.57;99398.39;108741;1253;65578;-64
2024/02/12 09:42:36;;;;;;;16.20;12.00;;;;;;;9.85;62.64;99395.97;107241;1253;62684;-66
2024/02/12 09:45:07;;;;;;;17.70;12.50;;;;;;;9.86;62.52;99396.25;105100;1254;60566;-66
2024/02/12 09:47:35;;;;;;;16.70;12.60;;;;;;;9.90;62.72;99393.67;108792;1253;62851;-65
2024/02/12 09:50:07;;;;;;;18.00;11.00;;;;;;;9.92;62.63;99387.46;105452;1253;66228;-65
2024/02/12 09:52:39;;;;;;;15.20;11.00;;;;;;;10.00;62.48;99381.85;108756;1258;62672;-67
2024/02/12 09:55:09;;;;;;;16.90;11.30;;;;;;;10.10;62.47;99378.64;108594;1253;73478;-66
2024/02/12 09:57:37;;;;;;;15.30;11.30;;;;;;;10.20;62.25;99380.66;106655;1254;59295;-67
2024/02/12 10:00:08;;;;;;;17.60;12.20;;;;;;;10.22;62.03;99382.57;104237;1255;61055;-59
2024/02/12 10:02:36;;;;;;;18.70;13.20;;;;;;;10.21;61.97;99383.71;108724;1253;75391;-70
2024/02/12 10:05:06;;;;;;;11.10;4.50;;;;;;;10.21;62.28;99383.38;107500;1256;60668;-72
2024/02/12 10:07:39;;;;;;;18.60;13.10;;;;;;;10.25;62.54;99381.61;104129;1253;73559;-65
2024/02/12 10:10:08;;;;;;;18.10;11.60;;;;;;;10.24;62.32;99376.05;108757;1254;59991;-70
2024/02/12 10:12:36;;;;;;;10.20;4.90;;;;;;;10.30;62.00;99375.19;108721;1258;58414;-62
2024/02/12 10:15:05;;;;;;;16.70;10.90;;;;;;;10.36;61.63;99368.87;104541;1261;76072;-69
2024/02/12 10:17:33;;;;;;;14.00;10.30;;;;;;;10.37;61.52;99369.09;108703;1253;74927;-65
2024/02/12 10:20:04;;;;;;;14.50;11.10;;;;;;;10.36;61.50;99367.23;108614;1253;63900;-63
2024/02/12 10:22:32;;;;;;;17.80;11.20;;;;;;;10.33;61.28;99361.59;108689;1257;58890;-65
2024/02/12 10:25:00;;;;;;;15.60;11.30;;;;;;;10.28;61.15;99360.84;108630;1259;58866;-69
2024/02/12 10:27:28;;;;;;;17.60;11.90;;;;;;;10.20;61.08;99358.58;108572;1254;76875;-69
2024/02/12 10:30:05;;;;;;;8.40;3.80;;;;;;;10.15;61.14;99361.15;108702;1257;73228;-68
2024/02/12 10:32:34;;;;;;;15.70;10.20;;;;;;;10.16;60.93;99360.34;108642;1256;63872;-70
2024/02/12 10:35:06;;;;;;;16.60;11.40;;;;;;;10.18;60.79;99354.38;108659;1253;63835;-69
2024/02/12 10:37:35;;;;;;;15.80;10.90;;;;;;;10.20;60.91;99355.90;108661;1258;59227;-71
2024/02/12 10:40:12;;;;;;;21.20;12.20;;;;;;;10.21;60.92;99351.05;108443;1253;65801;-70
2024/02/12 10:42:52;;;;;;;19.10;12.30;;;;;;;10.21;61.15;99350.52;105443;1259;61450;-70
2024/02/12 10:45:19;;;;;;;16.60;11.70;;;;;;;10.20;61.26;99349.85;104289;1257;75605;-66
2024/02/12 10:47:48;;;;;;;16.70;11.70;;;;;;;10.17;61.33;99349.77;104233;1254;62219;-68
2024/02/12 10:50:17;;;;;;;20.70;11.00;;;;;;;10.17;61.38;99350.90;108650;1253;74317;-81
2024/02/12 10:52:48;;;;;;;12.00;6.10;;;;;;;10.22;61.40;99353.45;106104;1255;67234;-82
2024/02/12 10:55:16;;;;;;;15.40;11.70;;;;;;;10.29;61.37;99350.41;105994;1258;62610;-84
2024/02/12 10:57:44;;;;;;;16.70;11.70;;;;;;;10.32;61.70;99347.17;106248;1257;65880;-86
2024/02/12 11:00:20;;;;;;;18.50;12.90;;;;;;;10.33;61.82;99342.63;105882;1254;62217;-85
2024/02/12 11:02:48;;;;;;;16.50;12.10;;;;;;;10.34;61.81;99339.91;105892;1254;60445;-83
2024/02/12 11:05:17;;;;;;;17.10;12.20;;;;;;;10.34;61.87;99342.21;105899;1254;63694;-80
2024/02/12 11:07:45;;;;;;;10.80;5.20;;;;;;;10.31;61.96;99337.25;105950;1253;60465;-80
2024/02/12 11:10:21;;;;;;;18.60;11.50;;;;;;;10.31;61.82;99337.18;107108;1253;64831;-78
2024/02/12 11:12:49;;;;;;;22.80;11.70;;;;;;;10.37;61.78;99335.30;106271;1259;63097;-78
2024/02/12 11:15:24;;;;;;;16.60;12.00;;;;;;;10.40;61.93;99335.36;105863;1260;61005;-77
2024/02/12 11:17:52;;;;;;;15.40;11.50;;;;;;;10.41;62.07;99331.55;106556;1253;67624;-79
2024/02/12 11:20:25;;;;;;;12.00;6.70;;;;;;;10.44;62.33;99336.16;106007;1254;60578;-77
2024/02/12 11:22:54;;;;;;;19.30;13.70;;;;;;;10.46;62.29;99335.79;105970;1257;66010;-79
2024/02/12 11:25:22;;;;;;;19.70;12.10;;;;;;;10.47;62.38;99336.70;105952;1258;60588;-78
2024/02/12 11:27:53;;;;;;;19.30;12.70;;;;;;;10.52;62.21;99338.55;105847;1259;60552;-82
2024/02/12 11:30:21;;;;;;;13.80;5.70;;;;;;;10.55;62.27;99342.10;106322;1260;65081;-82
2024/02/12 11:32:48;;;;;;;22.10;12.00;;;;;;;10.56;62.29;99338.85;106760;1260;72666;-84
2024/02/12 11:35:19;;;;;;;17.30;12.50;;;;;;;10.57;62.34;99339.81;106201;1254;72407;-84
2024/02/12 11:37:56;;;;;;;20.10;12.40;;;;;;;10.58;62.65;99342.23;105751;1254;60459;-84
2024/02/12 11:40:24;;;;;;;18.40;13.30;;;;;;;10.62;62.97;99334.63;105783;1255;60553;-85
2024/02/12 11:42:52;;;;;;;24.60;14.10;;;;;;;10.66;63.06;99335.06;106101;1254;65980;-83
2024/02/12 11:45:23;;;;;;;18.70;13.50;;;;;;;10.68;62.98;99332.45;105946;1259;71173;-83